Time;durP1;ratioP1;P1;durP2;ratioP2;P2;SDS_P1;SDS_P2;PMS_P1;PMS_P2;Temp;Humidity;BMP_temperature;BMP_pressure;BME280_temperature;BME280_humidity;BME280_pressure;Samples;Min_cycle;Max_cycle;Signal;HPM_P1;HPM_P2
2023/08/29 00:00:37;;;;;;;0.50;0.50;;;17.30;76.00;;;;;;5012730;28;20709;-75
2023/08/29 00:03:03;;;;;;;0.45;0.43;;;17.30;76.00;;;;;;5009262;28;20473;-72
2023/08/29 00:05:30;;;;;;;0.45;0.40;;;17.20;75.70;;;;;;5024569;28;20026;-72
2023/08/29 00:07:56;;;;;;;0.47;0.47;;;17.20;75.70;;;;;;5015445;28;20054;-72
2023/08/29 00:10:22;;;;;;;0.52;0.50;;;17.20;75.70;;;;;;5013382;28;20037;-72
2023/08/29 00:12:47;;;;;;;0.70;0.63;;;17.20;75.60;;;;;;5011312;28;20037;-72
2023/08/29 00:15:13;;;;;;;1.27;0.50;;;17.10;75.50;;;;;;5024810;28;20034;-75
2023/08/29 00:17:39;;;;;;;0.65;0.40;;;17.10;75.60;;;;;;5021430;28;20068;-75
2023/08/29 00:20:05;;;;;;;0.30;0.30;;;17.10;75.50;;;;;;5006229;28;20036;-75
2023/08/29 00:22:31;;;;;;;0.45;0.45;;;17.10;75.60;;;;;;5010091;28;20508;-72
2023/08/29 00:24:58;;;;;;;0.82;0.60;;;17.00;75.60;;;;;;5009438;28;20025;-72
2023/08/29 00:27:26;;;;;;;1.05;0.63;;;17.00;75.60;;;;;;5006355;28;20066;-72
2023/08/29 00:29:52;;;;;;;0.57;0.30;;;17.00;75.70;;;;;;5011895;28;20477;-72
2023/08/29 00:32:17;;;;;;;0.40;0.40;;;17.00;75.60;;;;;;5010752;28;20037;-72
2023/08/29 00:34:43;;;;;;;0.40;0.40;;;17.00;75.60;;;;;;4994875;28;20489;-72
2023/08/29 00:37:09;;;;;;;0.68;0.38;;;16.90;75.60;;;;;;5002001;28;20110;-72
2023/08/29 00:39:34;;;;;;;0.40;0.40;;;16.90;75.70;;;;;;5013909;28;20026;-72
2023/08/29 00:42:00;;;;;;;1.75;0.63;;;16.90;75.80;;;;;;5011988;28;20046;-75
2023/08/29 00:44:27;;;;;;;1.05;0.60;;;16.90;76.00;;;;;;5013896;28;20385;-75
2023/08/29 00:46:53;;;;;;;0.60;0.50;;;16.90;76.20;;;;;;5014044;28;20469;-72
2023/08/29 00:49:23;;;;;;;0.43;0.43;;;16.90;76.20;;;;;;5010234;28;20418;-72
2023/08/29 00:51:49;;;;;;;0.40;0.40;;;16.90;76.40;;;;;;5011541;28;20029;-75
2023/08/29 00:54:17;;;;;;;0.75;0.63;;;16.80;76.40;;;;;;5015830;28;20042;-75
2023/08/29 00:56:44;;;;;;;0.82;0.57;;;16.80;76.40;;;;;;5010709;28;20033;-75
2023/08/29 00:59:11;;;;;;;5.03;0.60;;;16.80;76.40;;;;;;5022889;28;20026;-75
2023/08/29 01:01:37;;;;;;;0.40;0.40;;;16.80;76.40;;;;;;5010870;28;20501;-75
2023/08/29 01:04:03;;;;;;;0.45;0.30;;;16.80;76.40;;;;;;5011785;28;20542;-75
2023/08/29 01:06:31;;;;;;;2.70;0.60;;;16.80;76.40;;;;;;4995793;28;20030;-75
2023/08/29 01:09:00;;;;;;;0.40;0.40;;;16.70;76.40;;;;;;5015317;28;20528;-75
2023/08/29 01:11:34;;;;;;;0.47;0.38;;;16.70;76.30;;;;;;5011618;28;20037;-75
2023/08/29 01:14:29;;;;;;;0.43;0.43;;;16.70;76.30;;;;;;5012134;28;20063;-75
2023/08/29 01:17:15;;;;;;;0.40;0.40;;;16.70;76.20;;;;;;5005372;28;20034;-75
2023/08/29 01:19:48;;;;;;;0.40;0.40;;;16.70;76.30;;;;;;5009408;28;20030;-75
2023/08/29 01:22:26;;;;;;;0.40;0.40;;;16.70;76.30;;;;;;5006156;28;20116;-75
2023/08/29 01:24:57;;;;;;;0.30;0.30;;;16.70;76.20;;;;;;5013724;28;20057;-75
2023/08/29 01:27:23;;;;;;;0.40;0.40;;;16.60;76.20;;;;;;5006427;28;20014;-75
2023/08/29 01:29:49;;;;;;;0.50;0.50;;;16.60;76.20;;;;;;5009648;28;20492;-75
2023/08/29 01:32:15;;;;;;;3.50;0.50;;;16.60;76.30;;;;;;5013481;28;20113;-75
2023/08/29 01:34:44;;;;;;;2.70;0.75;;;16.60;76.30;;;;;;5012569;28;20554;-75
2023/08/29 01:37:10;;;;;;;0.40;0.40;;;16.60;76.40;;;;;;5025816;28;20034;-72
2023/08/29 01:39:36;;;;;;;0.40;0.40;;;16.60;76.60;;;;;;5011209;28;20033;-75
2023/08/29 01:42:02;;;;;;;0.28;0.28;;;16.50;76.50;;;;;;5011297;28;20080;-75
2023/08/29 01:44:28;;;;;;;0.30;0.30;;;16.50;76.60;;;;;;5015434;28;20026;-72
2023/08/29 01:46:54;;;;;;;0.43;0.43;;;16.50;76.70;;;;;;5018281;28;20025;-72
2023/08/29 01:49:19;;;;;;;0.73;0.30;;;16.50;76.80;;;;;;4996501;28;20038;-72
2023/08/29 01:51:45;;;;;;;0.60;0.57;;;16.50;76.80;;;;;;5011831;28;20037;-72
2023/08/29 01:54:11;;;;;;;0.40;0.40;;;16.50;76.80;;;;;;5012185;28;20041;-73
2023/08/29 01:56:39;;;;;;;0.45;0.45;;;16.50;76.80;;;;;;5012961;28;20494;-72
2023/08/29 01:59:06;;;;;;;0.60;0.60;;;16.60;76.80;;;;;;5014519;28;20540;-72
2023/08/29 02:01:32;;;;;;;0.30;0.30;;;16.60;76.90;;;;;;5011954;28;20036;-72
2023/08/29 02:03:58;;;;;;;0.20;0.20;;;16.60;76.90;;;;;;5013210;28;20034;-72
2023/08/29 02:06:24;;;;;;;0.50;0.47;;;16.60;76.90;;;;;;5016975;28;20026;-72
2023/08/29 02:08:49;;;;;;;0.30;0.30;;;16.60;77.00;;;;;;5009103;28;20046;-72
2023/08/29 02:11:15;;;;;;;0.50;0.50;;;16.60;76.90;;;;;;5013650;28;20470;-73
2023/08/29 02:13:41;;;;;;;0.90;0.38;;;16.50;76.90;;;;;;5009751;28;20038;-72
2023/08/29 02:16:06;;;;;;;0.52;0.52;;;16.50;76.90;;;;;;5023945;28;20041;-75
2023/08/29 02:18:32;;;;;;;0.47;0.47;;;16.50;76.90;;;;;;5009653;28;20033;-72
2023/08/29 02:20:58;;;;;;;0.40;0.40;;;16.50;77.00;;;;;;5026175;28;20034;-72
2023/08/29 02:23:23;;;;;;;0.80;0.60;;;16.50;76.90;;;;;;5010870;28;20045;-72
2023/08/29 02:26:00;;;;;;;0.75;0.55;;;16.50;76.80;;;;;;5012042;28;20386;-72
2023/08/29 02:28:26;;;;;;;0.38;0.38;;;16.50;76.80;;;;;;5014855;28;20025;-72
2023/08/29 02:30:52;;;;;;;1.02;0.43;;;16.50;76.90;;;;;;5021416;28;20516;-72
2023/08/29 02:33:18;;;;;;;0.38;0.30;;;16.50;77.00;;;;;;5013015;28;20036;-72
2023/08/29 02:35:44;;;;;;;0.30;0.30;;;16.50;77.00;;;;;;5010174;28;20025;-72
2023/08/29 02:38:10;;;;;;;0.40;0.30;;;16.50;77.10;;;;;;5010631;28;20045;-72
2023/08/29 02:40:36;;;;;;;0.40;0.40;;;16.50;77.10;;;;;;5011828;28;20037;-72
2023/08/29 02:43:01;;;;;;;0.68;0.40;;;16.50;77.20;;;;;;5006997;28;20049;-72
2023/08/29 02:45:27;;;;;;;0.20;0.20;;;16.40;77.20;;;;;;5016553;28;20038;-71
2023/08/29 02:47:52;;;;;;;2.45;0.38;;;16.50;77.30;;;;;;5009680;28;20034;-72
2023/08/29 02:50:18;;;;;;;0.30;0.30;;;16.40;77.30;;;;;;5012397;28;20030;-72
2023/08/29 02:52:44;;;;;;;0.43;0.30;;;16.50;77.30;;;;;;5013590;28;20152;-72
2023/08/29 02:55:10;;;;;;;0.30;0.20;;;16.50;77.40;;;;;;5014251;28;20080;-72
2023/08/29 02:57:35;;;;;;;0.85;0.50;;;16.40;77.40;;;;;;5010485;28;20049;-72
2023/08/29 03:00:01;;;;;;;0.90;0.45;;;16.40;77.50;;;;;;5008645;28;20022;-72
2023/08/29 03:02:27;;;;;;;0.63;0.40;;;16.40;77.40;;;;;;5010392;28;20034;-72
2023/08/29 03:04:53;;;;;;;0.85;0.50;;;16.40;77.40;;;;;;5029373;28;20061;-72
2023/08/29 03:07:19;;;;;;;0.20;0.20;;;16.40;77.50;;;;;;5018503;28;20109;-75
2023/08/29 03:09:44;;;;;;;0.40;0.40;;;16.40;77.50;;;;;;5035479;28;20144;-75
2023/08/29 03:12:10;;;;;;;0.30;0.30;;;16.40;77.50;;;;;;5013394;28;20041;-75
2023/08/29 03:14:36;;;;;;;0.20;0.20;;;16.40;77.40;;;;;;5016040;28;20037;-75
2023/08/29 03:17:01;;;;;;;0.22;0.22;;;16.40;77.40;;;;;;5015511;28;20040;-75
2023/08/29 03:19:27;;;;;;;1.20;0.38;;;16.40;77.40;;;;;;5013700;28;20041;-75
2023/08/29 03:21:52;;;;;;;0.30;0.30;;;16.40;77.30;;;;;;5010142;28;20068;-75
2023/08/29 03:24:18;;;;;;;0.43;0.43;;;16.30;77.20;;;;;;5010108;28;20037;-75
2023/08/29 03:26:44;;;;;;;1.60;0.22;;;16.30;77.30;;;;;;5011001;28;20041;-75
2023/08/29 03:29:09;;;;;;;0.25;0.25;;;16.30;77.50;;;;;;5013766;28;20068;-75
2023/08/29 03:31:35;;;;;;;0.85;0.57;;;16.30;77.50;;;;;;5009447;28;20481;-75
2023/08/29 03:34:02;;;;;;;1.17;0.50;;;16.30;77.50;;;;;;5012036;28;20037;-76
2023/08/29 03:36:28;;;;;;;1.25;0.40;;;16.20;77.40;;;;;;5012116;28;20029;-75
2023/08/29 03:38:53;;;;;;;0.25;0.25;;;16.20;77.40;;;;;;4993809;28;20029;-75
2023/08/29 03:41:19;;;;;;;1.67;0.60;;;16.20;77.40;;;;;;5010132;28;20037;-75
2023/08/29 03:43:45;;;;;;;0.20;0.20;;;16.10;77.40;;;;;;5007206;28;20091;-75
2023/08/29 03:46:10;;;;;;;0.20;0.20;;;16.10;77.50;;;;;;5009711;28;20370;-75
2023/08/29 03:48:36;;;;;;;0.50;0.30;;;16.10;77.50;;;;;;5012750;28;20079;-75
2023/08/29 03:51:08;;;;;;;0.20;0.20;;;16.10;77.50;;;;;;5009078;28;20037;-75
2023/08/29 03:53:37;;;;;;;0.45;0.38;;;16.00;77.50;;;;;;5012535;28;20121;-75
2023/08/29 03:56:05;;;;;;;0.52;0.52;;;16.00;77.60;;;;;;5006644;28;20065;-76
2023/08/29 03:58:31;;;;;;;0.52;0.43;;;15.90;77.60;;;;;;5007025;28;20049;-75
2023/08/29 04:01:04;;;;;;;0.30;0.30;;;15.90;77.70;;;;;;5009228;28;20037;-75
2023/08/29 04:03:30;;;;;;;1.48;0.30;;;15.90;77.60;;;;;;5010397;28;20041;-75
2023/08/29 04:05:56;;;;;;;0.45;0.45;;;15.80;77.50;;;;;;5007532;28;20550;-75
2023/08/29 04:08:22;;;;;;;1.75;0.32;;;15.80;77.50;;;;;;5008355;28;20096;-75
2023/08/29 04:10:48;;;;;;;0.30;0.30;;;15.70;77.50;;;;;;4991939;28;20366;-75
2023/08/29 04:13:14;;;;;;;2.17;0.52;;;15.70;77.60;;;;;;5006938;28;20037;-75
2023/08/29 04:15:41;;;;;;;0.73;0.52;;;15.70;77.70;;;;;;5000200;28;20445;-75
2023/08/29 04:18:07;;;;;;;0.32;0.32;;;15.70;77.70;;;;;;5011536;28;20061;-75
2023/08/29 04:20:34;;;;;;;0.55;0.52;;;15.60;77.50;;;;;;5009408;28;21877;-75
2023/08/29 04:23:03;;;;;;;0.22;0.22;;;15.60;77.60;;;;;;4999173;28;20068;-73
2023/08/29 04:25:33;;;;;;;0.30;0.30;;;15.60;77.70;;;;;;5006360;28;20034;-72
2023/08/29 04:27:59;;;;;;;2.08;0.30;;;15.50;77.70;;;;;;5005321;28;20022;-72
2023/08/29 04:30:25;;;;;;;0.30;0.25;;;15.50;77.70;;;;;;5002125;28;20041;-72
2023/08/29 04:32:51;;;;;;;0.30;0.30;;;15.50;77.70;;;;;;5012753;28;20034;-73
2023/08/29 04:35:17;;;;;;;0.40;0.40;;;15.50;77.60;;;;;;5009319;28;20030;-72
2023/08/29 04:37:48;;;;;;;0.20;0.20;;;15.50;77.50;;;;;;5010708;28;20026;-72
2023/08/29 04:40:18;;;;;;;1.15;0.85;;;15.40;77.50;;;;;;5012647;28;20038;-72
2023/08/29 04:42:44;;;;;;;0.40;0.40;;;15.40;77.60;;;;;;5008404;28;20032;-73
2023/08/29 04:45:11;;;;;;;0.30;0.30;;;15.30;77.70;;;;;;5010340;28;20088;-72
2023/08/29 04:47:38;;;;;;;1.75;0.20;;;15.30;77.70;;;;;;5004695;28;20040;-72
2023/08/29 04:50:04;;;;;;;0.30;0.30;;;15.30;77.70;;;;;;5011544;28;20022;-72
2023/08/29 04:52:30;;;;;;;0.20;0.20;;;15.30;77.60;;;;;;5007711;28;20087;-72
2023/08/29 04:55:08;;;;;;;0.38;0.38;;;15.30;77.70;;;;;;5014959;28;20045;-72
2023/08/29 04:57:34;;;;;;;1.75;0.28;;;15.30;77.70;;;;;;5006236;28;20433;-72
2023/08/29 05:00:00;;;;;;;0.47;0.47;;;15.20;77.80;;;;;;5009374;28;20088;-72
2023/08/29 05:02:26;;;;;;;0.30;0.30;;;15.20;77.80;;;;;;5016505;28;20140;-72
2023/08/29 05:04:52;;;;;;;0.20;0.20;;;15.20;77.80;;;;;;5015499;28;20042;-72
2023/08/29 05:07:21;;;;;;;0.35;0.35;;;15.10;77.70;;;;;;5016272;28;20030;-72
2023/08/29 05:09:47;;;;;;;0.30;0.30;;;15.20;77.70;;;;;;5013821;28;20052;-72
2023/08/29 05:12:41;;;;;;;0.43;0.40;;;15.20;77.70;;;;;;5006960;28;20540;-72
2023/08/29 05:15:07;;;;;;;0.45;0.45;;;15.20;77.60;;;;;;5005105;28;20045;-72
2023/08/29 05:17:33;;;;;;;0.35;0.35;;;15.10;78.30;;;;;;5031311;28;20038;-72
2023/08/29 05:19:59;;;;;;;1.48;0.82;;;15.10;77.80;;;;;;5011713;28;20034;-72
2023/08/29 05:22:24;;;;;;;0.30;0.30;;;15.10;77.80;;;;;;4997360;28;20764;-72
2023/08/29 05:24:50;;;;;;;0.52;0.40;;;15.10;77.70;;;;;;5014036;28;20042;-72
2023/08/29 05:27:16;;;;;;;0.55;0.50;;;15.10;77.80;;;;;;5012894;28;20030;-72
2023/08/29 05:29:41;;;;;;;0.20;0.20;;;15.10;77.90;;;;;;5011289;28;20097;-72
2023/08/29 05:32:08;;;;;;;0.50;0.50;;;15.10;77.90;;;;;;5016421;28;20053;-72
2023/08/29 05:34:34;;;;;;;0.30;0.30;;;15.20;78.00;;;;;;5012019;28;20046;-72
2023/08/29 05:36:59;;;;;;;0.28;0.28;;;15.20;78.00;;;;;;5016862;28;20389;-72
2023/08/29 05:39:25;;;;;;;0.30;0.30;;;15.20;78.00;;;;;;5008883;28;20042;-72
2023/08/29 05:41:50;;;;;;;0.30;0.30;;;15.20;78.00;;;;;;5012217;28;20038;-72
2023/08/29 05:44:16;;;;;;;1.13;0.52;;;15.20;78.00;;;;;;5011270;28;20049;-71
2023/08/29 05:46:42;;;;;;;0.57;0.47;;;15.20;78.00;;;;;;5026499;28;20033;-72
2023/08/29 05:49:08;;;;;;;0.95;0.70;;;15.20;78.00;;;;;;5028005;28;20034;-72
2023/08/29 05:51:34;;;;;;;3.60;0.73;;;15.30;78.00;;;;;;5015472;28;20091;-72
2023/08/29 05:54:00;;;;;;;0.30;0.30;;;15.30;78.10;;;;;;5011429;28;20026;-72
2023/08/29 05:56:26;;;;;;;0.55;0.45;;;15.30;78.00;;;;;;5010002;28;20030;-72
2023/08/29 05:58:51;;;;;;;0.30;0.30;;;15.30;78.10;;;;;;5010805;28;20468;-72
2023/08/29 06:01:17;;;;;;;0.47;0.45;;;15.30;78.00;;;;;;5011924;28;20044;-74
2023/08/29 06:03:43;;;;;;;0.40;0.40;;;15.40;78.20;;;;;;5012560;28;20322;-74
2023/08/29 06:06:09;;;;;;;0.50;0.50;;;15.40;78.20;;;;;;5016482;28;20021;-74
2023/08/29 06:08:35;;;;;;;0.65;0.63;;;15.40;78.20;;;;;;5016196;28;20049;-73
2023/08/29 06:11:03;;;;;;;0.75;0.40;;;15.40;78.30;;;;;;5013075;28;20034;-74
2023/08/29 06:13:29;;;;;;;1.08;0.40;;;15.40;78.40;;;;;;5005872;28;20033;-74
2023/08/29 06:15:55;;;;;;;0.70;0.63;;;15.50;78.50;;;;;;5011709;28;20563;-75
2023/08/29 06:18:21;;;;;;;0.43;0.43;;;15.50;78.50;;;;;;5012059;28;20112;-72
2023/08/29 06:20:47;;;;;;;0.43;0.30;;;15.50;78.60;;;;;;5013949;28;20472;-72
2023/08/29 06:23:13;;;;;;;0.93;0.60;;;15.50;78.50;;;;;;5017820;28;20065;-72
2023/08/29 06:25:39;;;;;;;0.55;0.50;;;15.60;78.50;;;;;;5014756;28;20026;-71
2023/08/29 06:28:05;;;;;;;0.70;0.70;;;15.70;78.40;;;;;;5010371;28;20037;-72
2023/08/29 06:30:31;;;;;;;0.80;0.70;;;15.70;78.40;;;;;;5009750;28;20036;-72
2023/08/29 06:32:57;;;;;;;0.77;0.50;;;15.80;78.40;;;;;;5011690;28;20025;-72
2023/08/29 06:35:22;;;;;;;1.02;0.70;;;15.90;78.50;;;;;;5016300;28;20037;-71
2023/08/29 06:37:49;;;;;;;0.60;0.60;;;15.90;78.60;;;;;;5010079;28;20155;-71
2023/08/29 06:40:15;;;;;;;1.42;1.02;;;16.00;78.60;;;;;;5014871;28;20034;-74
2023/08/29 06:42:40;;;;;;;0.40;0.30;;;16.10;78.60;;;;;;5010485;28;20450;-74
2023/08/29 06:45:07;;;;;;;0.73;0.40;;;16.20;79.20;;;;;;5011064;28;20030;-74
2023/08/29 06:47:32;;;;;;;0.98;0.90;;;16.40;78.70;;;;;;5013680;28;20029;-74
2023/08/29 06:49:58;;;;;;;0.80;0.60;;;16.40;78.80;;;;;;5010948;28;20034;-72
2023/08/29 06:52:26;;;;;;;0.90;0.63;;;16.50;79.00;;;;;;5014096;28;20080;-74
2023/08/29 06:54:52;;;;;;;0.57;0.50;;;16.60;79.10;;;;;;5028874;28;20109;-74
2023/08/29 06:57:18;;;;;;;1.25;0.70;;;16.70;79.10;;;;;;5012725;28;20054;-74
2023/08/29 06:59:43;;;;;;;2.47;0.90;;;16.80;79.10;;;;;;5011605;28;20038;-74
2023/08/29 07:02:09;;;;;;;0.52;0.40;;;16.90;79.10;;;;;;5015779;28;20061;-74
2023/08/29 07:04:34;;;;;;;0.68;0.68;;;17.10;79.20;;;;;;5009549;28;20038;-74
2023/08/29 07:07:00;;;;;;;2.08;1.17;;;17.20;79.40;;;;;;5012479;28;20038;-73
2023/08/29 07:09:27;;;;;;;2.45;0.60;;;17.30;79.50;;;;;;5011301;28;20046;-74
2023/08/29 07:11:53;;;;;;;0.80;0.80;;;17.40;79.40;;;;;;5013096;28;20362;-71
2023/08/29 07:14:19;;;;;;;1.25;0.55;;;17.60;79.30;;;;;;5017242;28;20029;-72
2023/08/29 07:16:45;;;;;;;0.43;0.40;;;17.70;79.10;;;;;;5001175;28;20501;-72
2023/08/29 07:19:12;;;;;;;1.95;1.15;;;17.90;78.80;;;;;;5012570;28;20440;-71
2023/08/29 07:21:38;;;;;;;1.65;1.00;;;18.00;78.60;;;;;;5017850;28;20045;-72
2023/08/29 07:24:04;;;;;;;0.40;0.40;;;18.20;78.30;;;;;;5013285;28;20559;-73
2023/08/29 07:26:30;;;;;;;0.52;0.40;;;18.30;78.00;;;;;;5005240;28;20022;-77
2023/08/29 07:29:08;;;;;;;0.43;0.32;;;18.40;77.50;;;;;;5002358;28;20091;-72
2023/08/29 07:31:34;;;;;;;0.30;0.30;;;18.50;77.30;;;;;;5002117;28;20021;-71
2023/08/29 07:34:00;;;;;;;1.80;0.85;;;18.60;77.50;;;;;;5005993;28;20498;-71
2023/08/29 07:36:25;;;;;;;0.30;0.30;;;18.70;76.70;;;;;;5006566;28;20065;-69
2023/08/29 07:39:30;;;;;;;0.30;0.30;;;18.70;76.50;;;;;;5005346;28;20025;-69
2023/08/29 07:41:56;;;;;;;0.43;0.20;;;18.90;76.30;;;;;;4941430;28;20039;-70
2023/08/29 07:44:22;;;;;;;0.20;0.20;;;18.90;76.10;;;;;;5002165;28;20100;-74
2023/08/29 07:46:47;;;;;;;0.20;0.20;;;18.90;76.00;;;;;;5008012;28;20033;-73
2023/08/29 07:49:14;;;;;;;0.22;0.22;;;18.90;75.90;;;;;;5009647;28;20125;-72
2023/08/29 07:51:40;;;;;;;0.63;0.35;;;19.00;75.90;;;;;;5010623;28;20465;-71
2023/08/29 07:54:09;;;;;;;0.60;0.25;;;19.10;75.80;;;;;;5009998;28;20068;-71
2023/08/29 07:56:34;;;;;;;0.40;0.25;;;19.10;75.70;;;;;;4990667;28;20068;-71
2023/08/29 07:59:00;;;;;;;0.20;0.20;;;19.20;75.50;;;;;;4988200;28;20041;-71
2023/08/29 08:01:26;;;;;;;1.00;0.30;;;19.20;75.40;;;;;;5010581;28;20128;-73
2023/08/29 08:03:52;;;;;;;0.50;0.30;;;19.20;75.30;;;;;;5002005;28;20390;-74
2023/08/29 08:06:18;;;;;;;0.40;0.25;;;19.20;75.00;;;;;;4997673;28;20504;-74
2023/08/29 08:08:44;;;;;;;0.30;0.30;;;19.20;74.90;;;;;;4994412;28;20045;-74
2023/08/29 08:11:10;;;;;;;0.28;0.28;;;19.30;75.00;;;;;;4982171;28;20608;-73
2023/08/29 08:13:36;;;;;;;0.60;0.52;;;19.30;75.00;;;;;;5006134;28;20026;-74
2023/08/29 08:16:02;;;;;;;0.45;0.30;;;19.30;74.70;;;;;;5009062;28;20362;-73
2023/08/29 08:18:28;;;;;;;0.55;0.32;;;19.30;74.60;;;;;;5001845;28;20065;-75
2023/08/29 08:20:53;;;;;;;0.30;0.30;;;19.40;74.40;;;;;;5003734;28;20040;-75
2023/08/29 08:23:19;;;;;;;0.82;0.40;;;19.40;74.40;;;;;;5003424;28;20030;-75
2023/08/29 08:25:44;;;;;;;0.30;0.30;;;19.40;74.30;;;;;;5003536;28;20119;-74
2023/08/29 08:28:10;;;;;;;0.30;0.30;;;19.50;74.20;;;;;;5019537;28;20030;-75
2023/08/29 08:30:39;;;;;;;0.30;0.30;;;19.50;74.10;;;;;;5020204;28;20033;-75
2023/08/29 08:33:05;;;;;;;0.32;0.32;;;19.50;73.90;;;;;;5010347;28;20478;-75
2023/08/29 08:35:32;;;;;;;0.30;0.30;;;19.70;73.90;;;;;;5009622;28;20029;-75
2023/08/29 08:37:57;;;;;;;0.20;0.20;;;19.60;73.20;;;;;;5023035;28;20393;-75
2023/08/29 08:40:23;;;;;;;3.90;0.85;;;19.60;72.50;;;;;;5013512;28;20033;-75
2023/08/29 08:42:49;;;;;;;0.20;0.20;;;19.60;71.80;;;;;;5006486;28;20029;-75
2023/08/29 08:45:16;;;;;;;0.47;0.43;;;19.60;71.80;;;;;;5009400;28;20041;-75
2023/08/29 08:47:42;;;;;;;0.50;0.30;;;19.60;72.00;;;;;;5012371;28;20108;-75
2023/08/29 08:50:09;;;;;;;0.30;0.30;;;19.80;71.70;;;;;;5009263;28;20040;-75
2023/08/29 08:52:35;;;;;;;0.32;0.30;;;19.80;71.30;;;;;;5010540;28;20071;-73
2023/08/29 08:55:01;;;;;;;0.20;0.20;;;19.90;71.20;;;;;;5010503;28;20030;-75
2023/08/29 08:57:27;;;;;;;0.28;0.28;;;20.00;71.10;;;;;;5011621;28;20481;-76
2023/08/29 08:59:53;;;;;;;0.30;0.30;;;20.10;71.10;;;;;;5010280;28;20037;-75
2023/08/29 09:02:20;;;;;;;0.30;0.30;;;20.20;71.00;;;;;;5005682;28;20040;-75
2023/08/29 09:04:46;;;;;;;0.57;0.57;;;20.30;70.70;;;;;;5002580;28;20132;-75
2023/08/29 09:07:11;;;;;;;0.68;0.38;;;20.30;70.70;;;;;;5008733;28;20037;-76
2023/08/29 09:09:37;;;;;;;0.30;0.30;;;20.40;70.00;;;;;;5007844;28;20046;-76
2023/08/29 09:12:03;;;;;;;0.30;0.30;;;20.40;69.50;;;;;;5014976;28;20509;-74
2023/08/29 09:14:32;;;;;;;0.30;0.30;;;20.40;69.70;;;;;;5013268;28;20033;-73
2023/08/29 09:16:59;;;;;;;0.13;0.13;;;20.40;69.10;;;;;;5009212;28;20029;-73
2023/08/29 09:19:29;;;;;;;0.20;0.20;;;20.50;68.50;;;;;;5014052;28;20514;-73
2023/08/29 09:21:55;;;;;;;0.52;0.40;;;20.60;68.80;;;;;;5012813;28;20523;-75
2023/08/29 09:24:35;;;;;;;0.43;0.43;;;20.60;69.00;;;;;;5012638;28;20026;-76
2023/08/29 09:27:10;;;;;;;0.45;0.45;;;20.80;69.00;;;;;;5011972;28;20405;-76
2023/08/29 09:29:36;;;;;;;0.45;0.22;;;20.80;68.90;;;;;;5004642;28;20554;-76
2023/08/29 09:32:15;;;;;;;0.85;0.52;;;20.90;68.90;;;;;;5023343;28;20399;-76
2023/08/29 09:34:41;;;;;;;0.40;0.30;;;20.80;67.80;;;;;;5015535;28;21288;-74
2023/08/29 09:37:10;;;;;;;0.80;0.32;;;20.70;67.90;;;;;;5015650;28;20029;-73
2023/08/29 09:39:36;;;;;;;2.35;0.50;;;20.70;68.00;;;;;;5010135;28;20431;-74
2023/08/29 09:42:07;;;;;;;0.47;0.47;;;20.70;67.40;;;;;;5029894;28;20406;-74
2023/08/29 09:44:40;;;;;;;0.65;0.47;;;20.70;67.60;;;;;;5006553;28;20036;-74
2023/08/29 09:47:08;;;;;;;0.70;0.45;;;20.90;67.80;;;;;;5008332;28;20100;-74
2023/08/29 09:49:48;;;;;;;0.40;0.40;;;21.10;67.80;;;;;;5010659;28;20064;-74
2023/08/29 09:52:15;;;;;;;0.30;0.30;;;21.20;67.30;;;;;;5008577;28;20057;-74
2023/08/29 09:54:52;;;;;;;2.72;0.55;;;21.30;67.50;;;;;;5010125;28;20022;-73
2023/08/29 09:57:21;;;;;;;0.32;0.32;;;21.30;67.70;;;;;;5013667;28;20037;-74
2023/08/29 09:59:50;;;;;;;0.40;0.30;;;21.30;67.60;;;;;;5014917;28;20034;-74
2023/08/29 10:02:20;;;;;;;0.30;0.30;;;21.40;67.10;;;;;;5025250;28;20399;-74
2023/08/29 10:04:52;;;;;;;0.52;0.43;;;21.40;67.00;;;;;;5018128;28;20049;-74
2023/08/29 10:07:28;;;;;;;0.52;0.30;;;21.30;65.90;;;;;;5010519;28;20486;-74
2023/08/29 10:09:55;;;;;;;0.40;0.40;;;21.30;66.00;;;;;;5014914;28;20523;-75
2023/08/29 10:12:21;;;;;;;0.25;0.25;;;21.40;66.10;;;;;;5009506;28;20382;-76
2023/08/29 10:14:48;;;;;;;0.55;0.55;;;21.70;65.90;;;;;;4998389;28;20112;-76
2023/08/29 10:17:14;;;;;;;1.00;0.55;;;21.90;65.10;;;;;;5011449;28;20501;-76
2023/08/29 10:19:42;;;;;;;0.40;0.40;;;22.00;64.40;;;;;;5011804;28;20030;-76
2023/08/29 10:22:10;;;;;;;0.40;0.40;;;22.00;63.60;;;;;;5011386;28;20034;-76
2023/08/29 10:24:36;;;;;;;0.30;0.30;;;22.00;64.10;;;;;;5008288;28;20440;-76
2023/08/29 10:27:03;;;;;;;0.32;0.32;;;22.00;64.80;;;;;;5010679;28;20104;-75
2023/08/29 10:29:30;;;;;;;0.35;0.35;;;22.00;64.20;;;;;;5025527;28;20034;-72
2023/08/29 10:31:57;;;;;;;0.25;0.25;;;22.10;64.40;;;;;;5011086;28;20041;-72
2023/08/29 10:34:26;;;;;;;0.30;0.30;;;22.40;64.30;;;;;;5010323;28;20492;-72
2023/08/29 10:36:52;;;;;;;0.20;0.20;;;22.50;63.90;;;;;;5013731;28;20103;-72
2023/08/29 10:39:19;;;;;;;0.50;0.30;;;22.50;64.00;;;;;;4993454;28;20034;-72
2023/08/29 10:41:52;;;;;;;0.40;0.22;;;22.50;63.70;;;;;;5011882;28;20053;-72
2023/08/29 10:44:36;;;;;;;0.30;0.30;;;22.50;63.10;;;;;;5007661;28;20022;-72
2023/08/29 10:47:16;;;;;;;0.20;0.20;;;22.40;63.00;;;;;;5009269;28;20022;-72
2023/08/29 10:49:46;;;;;;;0.43;0.40;;;22.30;63.50;;;;;;5011574;28;20113;-72
2023/08/29 10:52:13;;;;;;;0.30;0.30;;;22.20;64.30;;;;;;5015708;28;20076;-72
2023/08/29 10:54:40;;;;;;;0.68;0.40;;;22.10;64.10;;;;;;5006728;28;20060;-72
2023/08/29 10:57:29;;;;;;;0.52;0.52;;;21.90;64.70;;;;;;5008453;28;20041;-74
2023/08/29 10:59:56;;;;;;;1.75;0.73;;;21.70;65.20;;;;;;5026607;28;20028;-73
2023/08/29 11:02:29;;;;;;;0.88;0.40;;;21.60;65.50;;;;;;5014726;28;20039;-74
2023/08/29 11:05:10;;;;;;;0.30;0.30;;;21.40;65.80;;;;;;4999155;28;20034;-74
2023/08/29 11:07:36;;;;;;;0.40;0.40;;;21.20;66.50;;;;;;5009199;28;20084;-72
2023/08/29 11:10:22;;;;;;;0.30;0.30;;;21.00;67.10;;;;;;5009437;28;20125;-76
2023/08/29 11:13:07;;;;;;;0.52;0.40;;;21.00;67.70;;;;;;5015367;28;20370;-74
2023/08/29 11:15:51;;;;;;;0.73;0.30;;;20.90;68.40;;;;;;5012988;28;20389;-74
2023/08/29 11:18:21;;;;;;;0.52;0.52;;;20.90;68.80;;;;;;5010240;28;20100;-74
2023/08/29 11:20:47;;;;;;;0.38;0.38;;;20.80;69.10;;;;;;5010222;28;20053;-79
2023/08/29 11:23:13;;;;;;;0.30;0.30;;;20.80;69.80;;;;;;4997302;28;20042;-73
2023/08/29 11:25:39;;;;;;;0.30;0.30;;;20.80;70.10;;;;;;5007988;28;20393;-76
2023/08/29 11:28:05;;;;;;;1.08;0.60;;;20.80;70.60;;;;;;4996025;28;20047;-74
2023/08/29 11:30:32;;;;;;;0.30;0.30;;;20.80;70.60;;;;;;5020481;28;20040;-75
2023/08/29 11:32:58;;;;;;;0.82;0.50;;;20.90;70.60;;;;;;5012220;28;20018;-75
2023/08/29 11:35:24;;;;;;;0.30;0.30;;;21.00;71.30;;;;;;5009516;28;20037;-75
2023/08/29 11:37:49;;;;;;;0.90;0.65;;;21.00;71.60;;;;;;5005478;28;20023;-75
2023/08/29 11:40:27;;;;;;;0.52;0.52;;;21.00;71.00;;;;;;5015577;28;20080;-73
2023/08/29 11:42:52;;;;;;;0.80;0.63;;;21.10;70.90;;;;;;5016011;28;20033;-73
2023/08/29 11:45:18;;;;;;;0.50;0.45;;;21.10;70.50;;;;;;5027672;28;20033;-74
2023/08/29 11:47:44;;;;;;;0.40;0.40;;;21.20;70.10;;;;;;4991316;28;20068;-75
2023/08/29 11:50:11;;;;;;;0.60;0.60;;;21.30;69.80;;;;;;5007102;28;20457;-75
2023/08/29 11:52:37;;;;;;;1.35;0.50;;;21.40;69.80;;;;;;5007750;28;20033;-75
2023/08/29 11:55:07;;;;;;;1.30;0.73;;;21.50;69.60;;;;;;5009509;28;20084;-74
2023/08/29 11:57:33;;;;;;;0.88;0.88;;;21.60;69.00;;;;;;5000278;28;20022;-74
2023/08/29 11:59:59;;;;;;;0.95;0.60;;;21.60;68.00;;;;;;4991327;28;20022;-74
2023/08/29 12:02:26;;;;;;;0.63;0.63;;;21.70;67.40;;;;;;5006746;28;20374;-74
2023/08/29 12:04:56;;;;;;;1.80;0.70;;;21.80;66.90;;;;;;5009945;28;20121;-73
2023/08/29 12:07:23;;;;;;;1.38;0.60;;;21.90;66.70;;;;;;5005158;28;20034;-74
2023/08/29 12:09:52;;;;;;;0.65;0.65;;;22.00;66.90;;;;;;5008605;28;20041;-76
2023/08/29 12:12:36;;;;;;;0.73;0.60;;;22.20;66.90;;;;;;5005389;28;20036;-76
2023/08/29 12:15:06;;;;;;;0.88;0.88;;;22.40;66.40;;;;;;5003908;28;20104;-76
2023/08/29 12:17:40;;;;;;;1.67;0.70;;;22.60;65.70;;;;;;5007851;28;20057;-76
2023/08/29 12:20:15;;;;;;;3.15;1.05;;;22.70;65.50;;;;;;5009802;28;20473;-76
2023/08/29 12:22:46;;;;;;;1.35;0.70;;;22.90;64.70;;;;;;5010681;28;20041;-76
2023/08/29 12:25:13;;;;;;;3.10;0.85;;;23.10;63.50;;;;;;5005938;28;20497;-76
2023/08/29 12:27:44;;;;;;;0.85;0.80;;;23.20;63.10;;;;;;4990510;28;20544;-76
2023/08/29 12:30:13;;;;;;;0.60;0.60;;;23.30;63.30;;;;;;5023976;28;20111;-77
2023/08/29 12:32:39;;;;;;;0.73;0.73;;;23.40;60.60;;;;;;5007043;28;20026;-76
2023/08/29 12:35:06;;;;;;;1.83;0.63;;;23.50;61.20;;;;;;5010891;28;20042;-76
2023/08/29 12:37:32;;;;;;;0.82;0.77;;;23.50;60.50;;;;;;5004976;28;20528;-75
2023/08/29 12:39:58;;;;;;;0.70;0.70;;;23.60;60.90;;;;;;5012076;28;20068;-76
2023/08/29 12:42:24;;;;;;;1.00;0.90;;;23.70;61.20;;;;;;5022251;28;20022;-76
2023/08/29 12:44:50;;;;;;;0.60;0.47;;;23.80;61.40;;;;;;5008889;28;20042;-76
2023/08/29 12:47:16;;;;;;;1.17;0.80;;;23.90;61.00;;;;;;5006847;28;20038;-76
2023/08/29 12:49:41;;;;;;;0.50;0.50;;;24.10;61.10;;;;;;5008964;28;20033;-74